Kouts, Indiana
Current Conditions -  °F | °C
As of 9:56 PM on Wednesday 26 Nov 2014 (Local Time) from KVPZ Reporting Station
Broken Clouds Broken Clouds  
Wind Chill: 24°   Ceiling: 4100
Heat Index: 24°   Visibility: 9mi
Dew Point: 18°   Wind: 0mph
Humidity: 77%   Direction: NA
Pressure: 30.15"   Gusts: NA
Location:  41.32°N, 87.03°W
Report Text: KVPZ 270356Z AUTO 00000KT 9SM BKN041 M04/M08 A3015 RMK AO2 SLP220 T10441078 TSNO
Loading
Personal Weather Stations






























Interactive Weather Map New forecast layout! Learn more

10-Day Weather Forecast

Advertisements
Track Severe Weather on mobile